Time;durP1;ratioP1;P1;durP2;ratioP2;P2;SDS_P1;SDS_P2;PMS_P1;PMS_P2;Temp;Humidity;BMP_temperature;BMP_pressure;BME280_temperature;BME280_humidity;BME280_pressure;Samples;Min_cycle;Max_cycle;Signal;HPM_P1;HPM_P2
2022/08/12 00:44:41;;;;;;;8.67;3.50;;;;;;;22.30;38.44;97600.50;5030433;28;20429;-69
2022/08/12 00:47:07;;;;;;;5.80;2.77;;;;;;;22.20;38.52;97607.13;5028736;28;20474;-68
2022/08/12 00:49:32;;;;;;;4.50;2.80;;;;;;;22.14;38.88;97597.34;5029831;28;20978;-68
2022/08/12 00:52:06;;;;;;;8.60;2.90;;;;;;;22.19;38.60;97597.47;5030019;28;20207;-68
2022/08/12 00:54:38;;;;;;;4.53;3.07;;;;;;;22.19;38.02;97600.16;5023109;28;20241;-68
2022/08/12 00:57:10;;;;;;;6.50;3.00;;;;;;;22.29;38.02;97598.88;5029003;28;20418;-70
2022/08/12 00:59:42;;;;;;;6.17;3.00;;;;;;;22.28;38.39;97592.69;5030358;28;20885;-68
2022/08/12 01:02:08;;;;;;;3.33;2.57;;;;;;;22.22;38.49;97599.72;5030075;28;20434;-69
2022/08/12 01:12:49;;;;;;;4.23;3.10;;;;;;;22.09;38.85;97594.50;5025912;28;20553;-69
2022/08/12 01:15:16;;;;;;;4.90;2.70;;;;;;;22.07;38.83;97600.06;5033416;28;20434;-69
2022/08/12 01:17:43;;;;;;;3.27;2.90;;;;;;;22.15;38.90;97600.81;5031157;28;21051;-70
2022/08/12 01:20:17;;;;;;;2.83;2.60;;;;;;;22.05;38.96;97598.66;5032131;28;20423;-69
2022/08/12 01:23:10;;;;;;;5.00;3.10;;;;;;;22.03;39.17;97595.38;5031955;28;20936;-68
2022/08/12 01:25:38;;;;;;;5.53;2.83;;;;;;;21.89;39.46;97606.13;5015609;28;20438;-69
2022/08/12 01:28:07;;;;;;;5.07;3.20;;;;;;;21.91;39.63;97598.75;5042127;28;20447;-69
2022/08/12 01:30:33;;;;;;;5.10;2.80;;;;;;;21.85;39.69;97596.13;5023597;28;20461;-68
2022/08/12 01:33:01;;;;;;;4.63;3.17;;;;;;;21.91;39.49;97587.22;5027258;28;20945;-69
2022/08/12 01:35:29;;;;;;;4.30;2.67;;;;;;;21.92;39.76;97589.69;5032924;28;20437;-69
2022/08/12 01:38:01;;;;;;;4.13;2.70;;;;;;;21.86;39.67;97585.22;5032248;28;20454;-68
2022/08/12 01:40:30;;;;;;;3.30;2.87;;;;;;;21.86;39.65;97590.56;5034000;28;20423;-68
2022/08/12 01:43:09;;;;;;;4.03;2.90;;;;;;;21.88;39.84;97582.31;5037696;28;20509;-68
2022/08/12 01:45:40;;;;;;;6.27;3.17;;;;;;;21.83;39.78;97582.97;5024430;28;20498;-69
2022/08/12 01:48:34;;;;;;;2.97;2.37;;;;;;;21.83;39.72;97579.50;5030777;28;20508;-68
2022/08/12 01:51:13;;;;;;;4.37;2.73;;;;;;;21.77;40.17;97576.66;5028993;28;20458;-67
2022/08/12 01:54:09;;;;;;;3.63;2.67;;;;;;;21.67;40.35;97583.50;5029215;28;20418;-69
2022/08/12 01:57:02;;;;;;;2.60;2.40;;;;;;;21.72;40.26;97583.66;5022194;28;20473;-70
2022/08/12 01:59:57;;;;;;;6.30;2.93;;;;;;;21.76;40.21;97579.53;5032533;28;20426;-69
2022/08/12 02:02:29;;;;;;;2.90;2.60;;;;;;;21.75;40.01;97567.22;5031189;28;20435;-68
2022/08/12 02:11:17;;;;;;;5.50;2.80;;;;;;;21.46;41.27;97570.25;5033951;28;20457;-68
2022/08/12 02:14:16;;;;;;;5.30;3.00;;;;;;;21.38;41.25;97575.00;5029080;28;20426;-69
2022/08/12 02:17:04;;;;;;;3.90;2.87;;;;;;;21.45;40.90;97578.44;5019350;28;20512;-68
2022/08/12 02:19:38;;;;;;;3.37;2.57;;;;;;;21.42;41.38;97584.22;5021708;28;20422;-68
2022/08/12 02:22:29;;;;;;;5.17;3.20;;;;;;;21.33;41.74;97580.97;5030825;28;20421;-69
2022/08/12 02:25:14;;;;;;;7.20;2.90;;;;;;;21.26;41.68;97575.69;5026612;28;20476;-68
2022/08/12 02:27:46;;;;;;;2.90;2.60;;;;;;;21.31;41.84;97578.50;5045294;28;20831;-68
2022/08/12 02:30:14;;;;;;;3.57;2.70;;;;;;;21.23;41.55;97575.28;5030885;28;20427;-69
2022/08/12 02:32:42;;;;;;;4.23;2.70;;;;;;;21.21;41.98;97569.34;5025133;28;20599;-68
2022/08/12 02:35:13;;;;;;;3.40;2.87;;;;;;;21.18;42.16;97567.91;5022256;28;20862;-69
2022/08/12 02:37:40;;;;;;;2.80;2.60;;;;;;;21.22;42.21;97560.34;5027575;28;20473;-68
2022/08/12 02:40:08;;;;;;;3.67;3.00;;;;;;;21.28;41.75;97568.31;5031591;28;20433;-69
2022/08/12 02:42:35;;;;;;;2.73;2.53;;;;;;;21.29;42.00;97569.94;5035941;28;20425;-68
2022/08/12 02:45:07;;;;;;;7.17;2.73;;;;;;;21.22;42.22;97563.81;5030784;28;20480;-68
2022/08/12 02:47:38;;;;;;;6.10;3.00;;;;;;;21.14;42.35;97564.06;5024067;28;20457;-68
2022/08/12 02:50:04;;;;;;;4.07;2.60;;;;;;;21.16;42.33;97564.66;5026809;28;20453;-66
2022/08/12 02:52:32;;;;;;;3.53;2.83;;;;;;;21.23;42.14;97556.63;5022089;28;20473;-67
2022/08/12 02:55:17;;;;;;;5.03;2.90;;;;;;;21.08;42.16;97560.38;5038422;28;20445;-67
2022/08/12 02:57:44;;;;;;;3.03;2.80;;;;;;;21.13;42.32;97559.75;5023558;28;20450;-68
2022/08/12 03:00:12;;;;;;;2.87;2.67;;;;;;;20.98;42.60;97558.16;5029430;28;20937;-67
2022/08/12 03:02:39;;;;;;;4.10;2.90;;;;;;;21.05;42.41;97557.31;5027912;28;20423;-67
2022/08/12 03:05:05;;;;;;;3.33;2.63;;;;;;;21.00;42.82;97555.28;5027550;28;20427;-68
2022/08/12 03:07:35;;;;;;;5.93;2.63;;;;;;;21.02;42.73;97551.41;5029527;28;20464;-67
2022/08/12 03:10:08;;;;;;;5.40;2.90;;;;;;;21.05;42.30;97557.31;5013672;28;20433;-68
2022/08/12 03:12:37;;;;;;;8.03;2.90;;;;;;;20.86;42.97;97554.50;5031678;28;21156;-68
2022/08/12 03:15:05;;;;;;;3.50;3.30;;;;;;;20.97;43.03;97556.53;5022678;28;20870;-68
2022/08/12 03:17:42;;;;;;;3.70;3.40;;;;;;;20.91;42.92;97561.88;5015677;28;21264;-68
2022/08/12 03:20:10;;;;;;;5.90;3.00;;;;;;;20.74;43.50;97553.50;5032947;28;20893;-70
2022/08/12 03:22:41;;;;;;;4.13;2.73;;;;;;;20.78;43.53;97557.41;5030033;28;20928;-68
2022/08/12 03:25:15;;;;;;;7.70;3.10;;;;;;;20.85;43.03;97558.19;5033458;28;20794;-68
2022/08/12 03:27:48;;;;;;;4.40;2.90;;;;;;;20.69;43.59;97556.78;5010968;28;21016;-68
2022/08/12 03:30:18;;;;;;;3.60;2.80;;;;;;;20.67;43.45;97561.50;5031462;28;20928;-68
2022/08/12 03:32:46;;;;;;;5.20;2.90;;;;;;;20.55;43.73;97561.31;5034305;28;20475;-67
2022/08/12 03:35:16;;;;;;;4.10;2.87;;;;;;;20.64;43.53;97554.75;5032496;28;20431;-68
2022/08/12 03:37:44;;;;;;;3.37;2.90;;;;;;;20.55;43.78;97561.31;5028873;28;20490;-67
2022/08/12 03:41:32;;;;;;;4.20;3.57;;;;;;;20.47;44.07;97556.22;5028437;28;20921;-68
2022/08/12 04:02:13;;;;;;;4.73;2.83;;;;;;;20.32;44.43;97559.09;5029861;28;20468;-69
2022/08/12 04:04:43;;;;;;;6.73;3.27;;;;;;;20.37;44.72;97567.28;5030124;28;20509;-69
2022/08/12 04:07:10;;;;;;;6.70;3.50;;;;;;;20.27;44.75;97559.72;5028859;28;20450;-69
2022/08/12 04:09:37;;;;;;;4.73;3.27;;;;;;;20.29;44.67;97560.31;5030157;28;20472;-69
2022/08/12 04:14:48;;;;;;;6.47;3.70;;;;;;;20.31;44.81;97568.13;5025040;28;20426;-69
2022/08/12 04:17:15;;;;;;;3.53;3.13;;;;;;;20.33;44.59;97566.06;5027430;28;20435;-69
2022/08/12 04:19:41;;;;;;;4.50;3.27;;;;;;;20.33;44.59;97561.56;5029142;28;20794;-68
2022/08/12 04:22:08;;;;;;;6.90;3.40;;;;;;;20.31;44.61;97566.25;5026134;28;20830;-68
2022/08/12 04:24:34;;;;;;;6.07;3.27;;;;;;;20.24;44.75;97563.59;5029080;28;20775;-69
2022/08/12 04:27:01;;;;;;;4.60;3.40;;;;;;;20.16;45.08;97561.16;5027835;28;20437;-70
2022/08/12 04:29:26;;;;;;;4.63;3.40;;;;;;;20.19;45.24;97560.75;5037283;28;20414;-68
2022/08/12 04:31:54;;;;;;;7.90;3.53;;;;;;;20.10;45.48;97557.47;5017943;28;20455;-68
2022/08/12 04:34:22;;;;;;;6.07;3.37;;;;;;;20.16;45.65;97561.16;5016061;28;20231;-68
2022/08/12 04:36:47;;;;;;;4.77;3.70;;;;;;;20.12;45.40;97554.59;5015927;28;20558;-68
2022/08/12 04:39:13;;;;;;;7.57;3.50;;;;;;;20.20;45.19;97562.41;5017022;28;20462;-68
2022/08/12 04:41:40;;;;;;;7.50;3.90;;;;;;;20.15;45.49;97556.06;5021498;28;20183;-67
2022/08/12 04:44:07;;;;;;;9.40;3.40;;;;;;;20.12;45.63;97569.75;5018739;28;20321;-68
2022/08/12 04:46:33;;;;;;;3.83;3.13;;;;;;;20.05;45.77;97554.59;5025467;28;20435;-68
2022/08/12 04:48:59;;;;;;;6.07;3.87;;;;;;;20.03;45.87;97563.81;5021722;28;20956;-68
2022/08/12 04:51:25;;;;;;;8.63;3.47;;;;;;;20.03;46.45;97561.16;5018729;28;20454;-68
2022/08/12 04:53:51;;;;;;;4.17;3.77;;;;;;;19.89;46.74;97565.66;5025510;28;20773;-68
2022/08/12 04:56:16;;;;;;;5.60;3.30;;;;;;;19.95;46.48;97555.03;5020890;28;20202;-68
2022/08/12 04:58:42;;;;;;;7.30;4.30;;;;;;;19.93;46.61;97557.06;5026178;28;20214;-69
2022/08/12 05:01:09;;;;;;;4.17;3.60;;;;;;;20.04;46.33;97558.28;5021213;28;20184;-68
2022/08/12 05:03:35;;;;;;;7.07;4.00;;;;;;;20.10;46.13;97554.81;5030672;28;20640;-69
2022/08/12 05:06:01;;;;;;;5.13;4.07;;;;;;;20.21;45.95;97550.72;5008034;28;20425;-70
2022/08/12 05:08:26;;;;;;;5.17;3.73;;;;;;;20.28;45.80;97558.72;5017785;28;20204;-69
2022/08/12 05:10:52;;;;;;;4.53;3.73;;;;;;;20.26;46.36;97560.75;5008338;28;20427;-68
2022/08/12 05:13:20;;;;;;;4.87;4.10;;;;;;;20.25;46.24;97559.91;5021560;28;20200;-69
2022/08/12 05:15:45;;;;;;;7.20;3.70;;;;;;;20.37;46.39;97568.09;5021253;28;20183;-68
2022/08/12 05:18:12;;;;;;;7.40;4.57;;;;;;;20.42;45.99;97564.81;5019402;28;20435;-69
2022/08/12 05:20:37;;;;;;;6.97;4.57;;;;;;;20.52;45.67;97564.41;5021519;28;20224;-69
2022/08/12 05:23:07;;;;;;;8.13;4.10;;;;;;;20.59;46.15;97570.53;5024257;28;20418;-68
2022/08/12 05:25:32;;;;;;;8.07;4.30;;;;;;;20.64;45.59;97561.91;5019030;28;20183;-68
2022/08/12 05:27:59;;;;;;;10.00;3.57;;;;;;;20.67;45.62;97572.97;5029508;28;20864;-68
2022/08/12 05:30:29;;;;;;;7.40;4.07;;;;;;;20.63;45.55;97577.09;5021339;28;20210;-67
2022/08/12 05:32:56;;;;;;;8.47;3.33;;;;;;;20.66;45.59;97582.00;5016896;28;20455;-69
2022/08/12 05:35:22;;;;;;;10.73;3.90;;;;;;;20.75;45.56;97584.47;5022859;28;20433;-69
2022/08/12 05:37:48;;;;;;;8.60;3.63;;;;;;;20.79;44.83;97586.50;5010777;28;20458;-69
2022/08/12 05:40:13;;;;;;;6.20;3.80;;;;;;;20.84;44.83;97589.38;5024197;28;20196;-68
2022/08/12 05:42:39;;;;;;;4.90;3.43;;;;;;;20.98;45.10;97590.13;5031986;28;20430;-68
2022/08/12 05:45:05;;;;;;;5.77;3.50;;;;;;;21.09;45.04;97601.16;5032890;28;20258;-68
2022/08/12 05:47:31;;;;;;;5.27;4.00;;;;;;;21.20;45.12;97597.84;5032419;28;20200;-69
2022/08/12 05:49:58;;;;;;;6.10;3.90;;;;;;;21.35;44.33;97600.25;5031841;28;20931;-70
2022/08/12 05:52:23;;;;;;;6.00;3.50;;;;;;;21.40;44.04;97607.59;5032114;28;20459;-68
2022/08/12 05:54:50;;;;;;;8.87;4.03;;;;;;;21.50;43.99;97602.63;5030494;28;20418;-70
2022/08/12 05:57:16;;;;;;;8.37;3.97;;;;;;;21.63;43.65;97607.94;5030510;28;20257;-70
2022/08/12 05:59:41;;;;;;;8.73;3.57;;;;;;;21.82;43.39;97609.88;5031628;28;20913;-70
2022/08/12 06:02:08;;;;;;;12.67;3.97;;;;;;;21.96;42.82;97606.09;5033046;28;20184;-70
2022/08/12 06:04:34;;;;;;;4.70;4.17;;;;;;;22.06;42.68;97610.94;5032854;28;20261;-70
2022/08/12 06:07:06;;;;;;;4.27;3.70;;;;;;;22.22;42.38;97599.72;5029078;28;20947;-70
2022/08/12 06:09:32;;;;;;;5.20;3.67;;;;;;;22.42;41.91;97601.44;5023807;28;20849;-70
2022/08/12 06:11:58;;;;;;;6.00;4.30;;;;;;;22.61;41.44;97606.81;5014938;28;20459;-70
2022/08/12 06:14:23;;;;;;;6.20;3.77;;;;;;;22.75;40.88;97605.66;5030693;28;20309;-70
2022/08/12 06:16:50;;;;;;;4.10;3.20;;;;;;;22.92;40.42;97602.41;5030872;28;20172;-70
2022/08/12 06:19:16;;;;;;;4.67;3.57;;;;;;;23.11;40.06;97606.69;5026328;28;20757;-70
2022/08/12 06:21:41;;;;;;;18.77;4.30;;;;;;;23.30;40.12;97607.53;5031503;28;20426;-70
2022/08/12 06:24:07;;;;;;;12.13;4.20;;;;;;;23.50;39.80;97608.31;5033353;28;20653;-72
2022/08/12 06:26:33;;;;;;;16.90;3.17;;;;;;;23.67;38.84;97612.00;5039095;28;20297;-69
2022/08/12 06:28:59;;;;;;;7.67;3.60;;;;;;;23.83;38.83;97612.38;5033061;28;20205;-69
2022/08/12 06:31:25;;;;;;;3.97;3.50;;;;;;;24.04;38.82;97603.06;5033286;28;20218;-69
2022/08/12 06:33:50;;;;;;;4.00;3.00;;;;;;;24.25;38.43;97600.88;5035704;28;20430;-69
2022/08/12 06:36:17;;;;;;;7.07;3.07;;;;;;;24.44;37.94;97602.41;5040800;28;20195;-70
2022/08/12 06:38:44;;;;;;;7.33;3.53;;;;;;;24.61;36.70;97602.53;5036999;28;20211;-69
2022/08/12 06:44:00;;;;;;;4.43;3.20;;;;;;;24.93;35.76;97596.81;5014567;28;20934;-70
2022/08/12 06:46:27;;;;;;;6.90;3.10;;;;;;;25.07;35.34;97591.22;5030245;28;21268;-68
2022/08/12 06:48:57;;;;;;;6.07;2.77;;;;;;;25.21;35.70;97600.59;5031892;28;20207;-68
2022/08/12 06:51:28;;;;;;;4.37;3.03;;;;;;;25.34;35.02;97593.31;5031087;28;20907;-69
2022/08/12 06:53:54;;;;;;;8.53;3.43;;;;;;;25.43;35.06;97598.09;5030819;28;20521;-67
2022/08/12 06:56:20;;;;;;;11.43;3.20;;;;;;;25.54;35.01;97598.28;5029575;28;20509;-70
2022/08/12 06:58:46;;;;;;;8.00;3.07;;;;;;;25.63;34.72;97601.41;5030446;28;20457;-68
2022/08/12 07:01:11;;;;;;;7.40;2.63;;;;;;;25.75;34.12;97597.63;5030005;28;20422;-68
2022/08/12 07:03:37;;;;;;;5.67;2.80;;;;;;;25.89;34.10;97598.13;5030916;28;20192;-68
2022/08/12 07:06:05;;;;;;;3.13;2.50;;;;;;;26.04;33.71;97602.16;5031452;28;20241;-68
2022/08/12 07:08:32;;;;;;;13.43;3.00;;;;;;;26.24;33.40;97600.88;5018731;28;20239;-68
2022/08/12 07:11:00;;;;;;;5.00;2.63;;;;;;;26.36;32.29;97598.91;5012722;28;20517;-70
2022/08/12 07:13:34;;;;;;;3.10;2.40;;;;;;;26.51;32.07;97612.59;5015032;28;20795;-68
2022/08/12 07:16:01;;;;;;;6.30;2.73;;;;;;;26.68;31.81;97606.38;5011643;28;20437;-68
2022/08/12 07:18:31;;;;;;;6.77;2.43;;;;;;;26.77;31.73;97599.50;5019364;28;20446;-68
2022/08/12 07:20:57;;;;;;;7.37;2.87;;;;;;;26.79;31.03;97607.34;5014665;28;20427;-68
2022/08/12 07:23:23;;;;;;;4.17;2.30;;;;;;;26.81;29.84;97600.69;4993989;28;20434;-69
2022/08/12 07:25:49;;;;;;;7.43;2.27;;;;;;;26.83;29.76;97595.88;5018546;28;20211;-69
2022/08/12 07:28:17;;;;;;;6.23;2.80;;;;;;;26.96;29.58;97602.75;5022002;28;20483;-68
2022/08/12 07:30:47;;;;;;;2.90;2.60;;;;;;;27.01;29.53;97610.06;5018361;28;20196;-70
2022/08/12 07:33:15;;;;;;;2.80;1.93;;;;;;;27.09;29.31;97603.44;5020153;28;20780;-68
2022/08/12 07:35:44;;;;;;;6.70;2.70;;;;;;;27.20;29.27;97609.78;5026436;28;20442;-67
2022/08/12 07:38:24;;;;;;;3.07;1.93;;;;;;;27.22;28.99;97599.59;5017459;28;20455;-68
2022/08/12 07:41:11;;;;;;;4.10;2.67;;;;;;;27.41;29.21;97605.41;5021488;28;20436;-69
2022/08/12 07:43:40;;;;;;;5.13;2.13;;;;;;;27.53;28.48;97599.94;5021321;28;20455;-69
2022/08/12 07:46:08;;;;;;;3.87;2.40;;;;;;;27.67;28.45;97597.66;5012943;28;20416;-69
2022/08/12 07:48:52;;;;;;;6.40;2.60;;;;;;;27.65;28.06;97599.81;5010968;28;20447;-70
2022/08/12 07:51:18;;;;;;;3.93;2.50;;;;;;;27.57;28.01;97603.75;5013175;28;20495;-68
2022/08/12 07:53:44;;;;;;;2.73;2.27;;;;;;;27.73;28.18;97602.84;5013185;28;20430;-68
2022/08/12 07:56:10;;;;;;;2.40;2.17;;;;;;;27.78;28.14;97599.41;5014412;28;20428;-67
2022/08/12 07:58:39;;;;;;;5.67;2.43;;;;;;;27.99;28.13;97597.69;5015975;28;20270;-67
2022/08/12 08:01:09;;;;;;;10.73;2.40;;;;;;;28.18;28.17;97595.44;5027172;28;20180;-68
2022/08/12 08:04:54;;;;;;;4.17;2.20;;;;;;;28.31;27.83;97601.47;5022224;28;20450;-68
2022/08/12 08:06:24;;;;;;;9.73;2.40;;;;;;;28.51;27.61;97588.16;5021293;28;20426;-67
2022/08/12 08:08:49;;;;;;;5.03;2.10;;;;;;;28.52;26.55;97594.34;5022009;28;20446;-67
2022/08/12 08:14:03;;;;;;;2.80;2.60;;;;;;;28.86;26.90;97585.94;5013494;28;20188;-68
2022/08/12 08:16:28;;;;;;;2.20;2.00;;;;;;;28.90;26.32;97583.53;5009572;28;20420;-68
2022/08/12 08:18:54;;;;;;;2.80;1.87;;;;;;;28.99;26.20;97575.75;5013045;28;20544;-68
2022/08/12 08:21:20;;;;;;;2.33;2.13;;;;;;;29.18;26.85;97579.63;5015339;28;20246;-69
2022/08/12 08:26:31;;;;;;;3.00;2.20;;;;;;;29.53;25.83;97577.31;5021691;28;20430;-68
2022/08/12 08:28:58;;;;;;;2.60;1.80;;;;;;;29.73;25.76;97584.66;5027278;28;20958;-68
2022/08/12 08:31:23;;;;;;;5.77;2.10;;;;;;;29.82;24.98;97588.44;5019034;28;20478;-69
2022/08/12 08:33:49;;;;;;;2.20;1.93;;;;;;;29.93;24.98;97589.22;5016688;28;20427;-68
2022/08/12 08:36:14;;;;;;;2.67;1.97;;;;;;;30.01;25.01;97580.63;5020148;28;20189;-70
2022/08/12 08:38:44;;;;;;;6.13;1.80;;;;;;;30.23;24.51;97589.56;5019773;28;20813;-69
2022/08/12 08:43:55;;;;;;;3.00;2.20;;;;;;;30.42;24.03;97577.09;5033971;28;20432;-68
2022/08/12 08:46:21;;;;;;;2.13;1.63;;;;;;;30.64;23.83;97578.69;5033400;28;20437;-71
2022/08/12 08:48:47;;;;;;;3.93;2.00;;;;;;;30.85;24.44;97573.25;5035271;28;20799;-70
2022/08/12 08:51:12;;;;;;;2.03;1.93;;;;;;;31.03;23.66;97571.81;5036416;28;20482;-70
2022/08/12 08:53:40;;;;;;;3.87;1.80;;;;;;;31.07;21.99;97573.69;5015493;28;20185;-69
2022/08/12 08:56:09;;;;;;;3.80;1.80;;;;;;;31.12;22.01;97572.88;5016241;28;20259;-70
2022/08/12 08:58:37;;;;;;;5.17;2.13;;;;;;;31.19;22.42;97569.88;5018840;28;20938;-70
2022/08/12 09:01:03;;;;;;;2.60;2.03;;;;;;;31.29;23.23;97569.81;5007469;28;20863;-69
2022/08/12 09:03:29;;;;;;;5.60;2.00;;;;;;;31.47;23.46;97570.28;5028600;28;20459;-70
2022/08/12 09:05:55;;;;;;;2.33;2.13;;;;;;;31.49;22.74;97573.50;5012020;28;20987;-69
2022/08/12 09:08:21;;;;;;;2.10;1.90;;;;;;;31.60;22.95;97580.47;5019334;28;20673;-69
2022/08/12 09:10:47;;;;;;;6.80;2.20;;;;;;;31.84;23.06;97568.97;5024878;28;20466;-69
2022/08/12 09:13:28;;;;;;;2.00;1.63;;;;;;;32.03;22.45;97566.38;5006832;28;20909;-70
2022/08/12 09:15:53;;;;;;;3.27;1.73;;;;;;;32.22;22.19;97568.38;5029979;28;20500;-71
2022/08/12 09:18:19;;;;;;;3.80;1.97;;;;;;;32.20;21.57;97565.16;5023775;28;20500;-69
2022/08/12 09:20:49;;;;;;;3.53;1.80;;;;;;;32.27;21.69;97561.03;5023530;28;20184;-69
2022/08/12 09:23:16;;;;;;;2.00;1.70;;;;;;;32.34;21.33;97558.00;5024575;28;20195;-70
2022/08/12 09:25:43;;;;;;;2.70;1.93;;;;;;;32.32;21.44;97566.41;5022305;28;20427;-70
2022/08/12 09:28:09;;;;;;;3.87;1.70;;;;;;;32.46;21.29;97558.41;5026409;28;20956;-69
2022/08/12 09:30:43;;;;;;;1.93;1.70;;;;;;;32.45;20.81;97562.22;5019228;28;20517;-69
2022/08/12 09:33:11;;;;;;;6.93;2.10;;;;;;;32.57;20.82;97558.31;5024644;28;20480;-69
2022/08/12 09:35:39;;;;;;;3.67;1.57;;;;;;;32.70;21.08;97565.75;5023089;28;20451;-70
2022/08/12 09:38:05;;;;;;;1.73;1.63;;;;;;;32.76;20.87;97561.88;5026276;28;21018;-68
2022/08/12 09:40:31;;;;;;;3.97;2.37;;;;;;;32.83;20.87;97552.63;5027660;28;20442;-69
2022/08/12 09:45:48;;;;;;;1.90;1.70;;;;;;;33.17;20.42;97554.38;5026980;28;20203;-70
2022/08/12 09:48:16;;;;;;;5.53;2.00;;;;;;;33.05;20.43;97544.75;5029587;28;20465;-70
2022/08/12 09:50:44;;;;;;;10.63;2.10;;;;;;;33.01;20.61;97540.22;5030922;28;20419;-69
2022/08/12 09:53:15;;;;;;;5.37;1.73;;;;;;;32.93;20.62;97538.94;5010506;28;20482;-69
2022/08/12 09:55:48;;;;;;;2.97;1.60;;;;;;;33.04;20.16;97528.75;5031188;28;20493;-68
2022/08/12 09:58:15;;;;;;;1.60;1.50;;;;;;;33.10;19.86;97524.88;5028617;28;20465;-69
2022/08/12 10:00:42;;;;;;;6.43;1.63;;;;;;;33.10;20.11;97527.59;5013282;28;20521;-68
2022/08/12 10:03:09;;;;;;;3.00;1.87;;;;;;;33.19;20.05;97525.84;5007811;28;20437;-67
2022/08/12 10:05:40;;;;;;;4.50;1.80;;;;;;;33.21;20.02;97518.19;5033489;28;20427;-68
2022/08/12 10:08:09;;;;;;;4.70;1.60;;;;;;;33.35;19.94;97523.72;5031587;28;20451;-69
2022/08/12 10:13:40;;;;;;;2.10;1.87;;;;;;;33.38;19.89;97522.34;5035069;28;20422;-70
2022/08/12 10:13:42;;;;;;;2.30;1.70;;;;;;;33.24;20.48;97517.63;5026347;28;20530;-70
2022/08/12 10:16:20;;;;;;;2.03;1.80;;;;;;;32.87;20.22;97511.06;5032249;28;20433;-70
2022/08/12 10:18:47;;;;;;;1.70;1.60;;;;;;;32.85;20.36;97515.16;5032326;28;20466;-70
2022/08/12 10:21:38;;;;;;;2.20;2.00;;;;;;;32.92;20.29;97510.97;5031011;28;20510;-69
2022/08/12 10:24:15;;;;;;;2.57;1.70;;;;;;;33.04;20.66;97513.28;5028361;28;20418;-70
2022/08/12 10:29:41;;;;;;;4.77;1.67;;;;;;;33.28;20.22;97504.25;5038779;28;21011;-70
2022/08/12 10:32:11;;;;;;;9.67;1.80;;;;;;;33.06;20.43;97502.94;5029959;28;20521;-71
2022/08/12 10:34:36;;;;;;;3.93;1.90;;;;;;;33.34;19.78;97499.56;5030970;28;20427;-70
2022/08/12 10:37:03;;;;;;;3.33;2.03;;;;;;;33.62;20.32;97489.66;5031322;28;20947;-69
2022/08/12 10:39:34;;;;;;;3.93;1.60;;;;;;;33.94;20.16;97496.22;5038733;28;20663;-71
2022/08/12 10:44:48;;;;;;;2.00;1.90;;;;;;;34.21;19.84;97485.69;5026139;28;20423;-69
2022/08/12 10:47:20;;;;;;;3.97;1.90;;;;;;;34.34;18.91;97490.31;5036498;28;20500;-70
2022/08/12 10:49:47;;;;;;;6.83;1.60;;;;;;;34.33;18.72;97487.94;5032062;28;20183;-71
2022/08/12 10:52:12;;;;;;;4.90;1.60;;;;;;;34.28;19.63;97492.34;5029884;28;20490;-69
2022/08/12 10:54:40;;;;;;;9.90;1.90;;;;;;;34.10;19.16;97488.59;5040013;28;20511;-69
2022/08/12 10:57:06;;;;;;;2.87;1.73;;;;;;;34.44;19.03;97482.00;5029469;28;20179;-69
2022/08/12 10:59:31;;;;;;;2.23;2.03;;;;;;;34.60;19.31;97478.97;5031946;28;20435;-70
2022/08/12 11:01:58;;;;;;;3.73;1.57;;;;;;;34.81;19.18;97478.53;5046200;28;20167;-70
2022/08/12 11:04:25;;;;;;;2.60;1.73;;;;;;;34.87;18.71;97485.50;5037418;28;21262;-70
2022/08/12 11:06:52;;;;;;;1.60;1.50;;;;;;;34.91;18.83;97478.31;5031385;28;20449;-70
2022/08/12 11:09:19;;;;;;;6.40;2.07;;;;;;;35.03;17.92;97475.91;5013654;28;20446;-70
2022/08/12 11:11:48;;;;;;;2.57;1.50;;;;;;;35.16;18.27;97473.47;5031473;28;20457;-69
2022/08/12 11:14:26;;;;;;;5.07;1.63;;;;;;;34.94;18.03;97475.03;5030181;28;20434;-70
2022/08/12 11:17:14;;;;;;;3.60;1.50;;;;;;;35.00;17.97;97467.53;5030812;28;20628;-68
2022/08/12 11:19:41;;;;;;;9.10;1.87;;;;;;;35.21;17.79;97467.91;5023664;28;20422;-69
2022/08/12 11:22:07;;;;;;;4.93;1.80;;;;;;;35.28;17.64;97457.41;5031104;28;20414;-69
2022/08/12 11:24:33;;;;;;;4.80;1.73;;;;;;;35.32;17.61;97468.47;5031401;28;20494;-69
2022/08/12 11:27:00;;;;;;;3.23;1.57;;;;;;;35.41;17.77;97447.53;5029397;28;20410;-69
2022/08/12 11:29:26;;;;;;;2.17;1.50;;;;;;;35.28;17.48;97451.94;5037119;28;20203;-69
2022/08/12 11:31:53;;;;;;;3.20;1.80;;;;;;;35.43;17.72;97445.34;5029879;28;20593;-68
2022/08/12 11:34:18;;;;;;;11.63;1.63;;;;;;;35.15;18.03;97455.53;5031266;28;20449;-69
2022/08/12 11:36:51;;;;;;;3.07;1.63;;;;;;;34.97;17.21;97449.91;5025855;28;20434;-70
2022/08/12 11:39:17;;;;;;;3.23;1.50;;;;;;;34.97;17.56;97447.19;5029282;28;20628;-69
2022/08/12 11:41:42;;;;;;;4.00;1.50;;;;;;;34.73;17.69;97447.41;5029660;28;20472;-69
2022/08/12 11:44:08;;;;;;;3.93;1.80;;;;;;;34.30;17.70;97459.41;5030727;28;20184;-68
2022/08/12 11:46:38;;;;;;;7.63;1.20;;;;;;;34.04;18.19;97456.38;5029173;28;20183;-69
2022/08/12 11:49:04;;;;;;;2.63;1.73;;;;;;;33.66;18.35;97459.97;5030967;28;20210;-68
2022/08/12 11:51:30;;;;;;;2.53;1.30;;;;;;;33.68;18.67;97447.72;5030788;28;20454;-68
2022/08/12 11:53:56;;;;;;;3.30;1.80;;;;;;;33.92;18.50;97438.63;5032605;28;20453;-69
2022/08/12 11:56:21;;;;;;;2.60;1.30;;;;;;;34.07;18.78;97440.25;5029452;28;20426;-68
2022/08/12 11:58:47;;;;;;;3.43;1.40;;;;;;;33.96;18.50;97439.63;5029057;28;20728;-68
2022/08/12 12:01:13;;;;;;;7.20;1.57;;;;;;;33.74;18.44;97442.19;5038763;28;20186;-69
2022/08/12 12:03:39;;;;;;;1.97;1.40;;;;;;;33.91;18.35;97433.50;5030411;28;20430;-68
2022/08/12 12:06:04;;;;;;;4.77;1.47;;;;;;;33.68;18.31;97441.47;5029267;28;20191;-69
2022/08/12 12:08:30;;;;;;;3.13;1.63;;;;;;;33.58;18.53;97431.59;5036278;28;20200;-70
2022/08/12 12:10:56;;;;;;;2.23;1.40;;;;;;;33.41;18.38;97423.97;5031735;28;20252;-68
2022/08/12 12:13:21;;;;;;;2.80;1.50;;;;;;;33.87;18.35;97430.53;5031142;28;20184;-68
2022/08/12 12:15:47;;;;;;;1.60;1.50;;;;;;;34.21;18.22;97431.31;5030718;28;20180;-68
2022/08/12 12:18:19;;;;;;;1.83;1.30;;;;;;;34.32;17.60;97424.56;5029202;28;20251;-68
2022/08/12 12:20:45;;;;;;;3.77;1.30;;;;;;;34.19;18.01;97422.66;5030696;28;20190;-69
2022/08/12 12:23:10;;;;;;;1.27;1.17;;;;;;;34.03;17.70;97428.38;5030338;28;20781;-70
2022/08/12 12:25:36;;;;;;;4.23;1.67;;;;;;;34.07;17.81;97423.16;5028808;28;20270;-68
2022/08/12 12:28:01;;;;;;;4.97;1.37;;;;;;;33.96;17.88;97422.53;5035787;28;20207;-68
2022/08/12 12:30:27;;;;;;;4.50;1.50;;;;;;;34.14;18.01;97427.09;5024222;28;20186;-69
2022/08/12 12:32:52;;;;;;;1.70;1.60;;;;;;;34.29;17.67;97430.59;5029556;28;20289;-68
2022/08/12 12:35:18;;;;;;;2.00;1.50;;;;;;;34.49;17.59;97417.72;5029910;28;20206;-68
2022/08/12 12:37:58;;;;;;;5.87;1.70;;;;;;;34.26;17.81;97433.94;5029496;28;20215;-69
2022/08/12 12:40:25;;;;;;;5.60;1.50;;;;;;;33.88;17.46;97425.97;5013153;28;20671;-69
2022/08/12 12:42:50;;;;;;;1.83;1.40;;;;;;;33.53;18.34;97426.25;5028900;28;20419;-68
2022/08/12 12:45:16;;;;;;;1.77;1.47;;;;;;;33.71;17.98;97415.63;5012427;28;20445;-68
2022/08/12 12:47:52;;;;;;;5.20;1.50;;;;;;;33.77;18.24;97414.41;5029277;28;20195;-68
2022/08/12 12:50:18;;;;;;;3.87;1.53;;;;;;;33.67;18.52;97412.69;5030181;28;20262;-68
2022/08/12 12:52:43;;;;;;;4.47;1.67;;;;;;;33.47;18.16;97420.09;5030273;28;20545;-70
2022/08/12 12:55:09;;;;;;;1.83;1.50;;;;;;;33.41;17.93;97412.31;5029955;28;20207;-70
2022/08/12 12:57:41;;;;;;;5.43;1.50;;;;;;;33.65;18.61;97401.31;5029479;28;20199;-70
2022/08/12 13:00:14;;;;;;;5.30;1.90;;;;;;;33.99;18.35;97405.63;5026526;28;20430;-70
2022/08/12 13:02:51;;;;;;;2.50;1.40;;;;;;;34.07;18.29;97407.63;5022523;28;20442;-69
2022/08/12 13:05:24;;;;;;;1.60;1.50;;;;;;;34.34;18.39;97387.00;5028252;28;20426;-68
2022/08/12 13:07:51;;;;;;;1.83;1.40;;;;;;;34.53;18.37;97391.53;5029574;28;20435;-69
2022/08/12 13:10:16;;;;;;;5.23;1.77;;;;;;;34.41;17.87;97387.41;5031351;28;20430;-69
2022/08/12 13:12:42;;;;;;;6.60;2.30;;;;;;;34.26;18.23;97393.16;5039924;28;20460;-69
2022/08/12 13:15:14;;;;;;;2.53;2.30;;;;;;;34.37;18.28;97391.84;5032284;28;20183;-69
2022/08/12 13:17:42;;;;;;;1.40;1.30;;;;;;;34.33;18.14;97398.97;5033145;28;20239;-69
2022/08/12 13:20:08;;;;;;;7.33;1.77;;;;;;;34.47;17.78;97395.47;5033367;28;20438;-70
2022/08/12 13:22:33;;;;;;;4.60;1.43;;;;;;;34.64;17.76;97390.22;5032541;28;20472;-69